Open Full Screen Window  High Contrast Mode
Wind Gusting 20 knots
15
February 25, 2018 4:57 AM EST
Present Weather: Unknown Precipitation
Weather Information
Wind Direction
  130 °
Wind Speed
  15 kt (17 mph)
Wind Gust
  20 kt (23 mph)
Altimeter
29.36 in
Visibility
2 SM
Temperature
01° C
34° F
Dewpoint
00° C
32° F
Humidity
93%
Sky Condition
Overcast @ 600 ft
IFR

METAR KPZQ 250957Z AUTO 13015G20KT 2SM UP OVC006 01/00 A2936 RMK AO2 T00060000

*Background is not an actual portrayal of the airport.